Airfield :
LOGIN :

Register | Disclaimer

   EN    FR    IT 

 










Legend :    VFR   Marginal VFR   IFR   Intensive IFR   Very Intensive IFR
Visi :
Ceiling :
>= 8 km
>= 3000ft
5 to 8 km
1000 to 3000 ft
1500m to 5 km
500 to 1000 ft
800 to 1500m
200 to 500 ft
< 800m
< 200 ft
Symbols :   Thunderstorms  Fog  Heavy snow  Heavy precipitations  Wind > 20 kt
SIGMETs :     Misc.  Thunderstorms  Icing  Turbulence  Mountain Waves  Volcanic Ashes






- Airport Elevation : 202 ft
- IATA code : LGW


EGKK - London Gatwick

CURRENT METAR :
  • 230820Z 21006KT CAVOK 14/12 Q1008

EXPIRED METARs :
  • 230750Z 19004KT CAVOK 13/12 Q1008
  • 230720Z 21004KT CAVOK 12/12 Q1008
  • 230650Z 22005KT 9999 FEW010 12/12 Q1008
  • 230620Z 20004KT 9999 VCSH FEW007 SCT010 BKN016 13/12 Q1008
  • 230550Z 24005KT 210V280 9999 SCT009 SCT015 12/12 Q1008

TAF TAF EGKK
Valid from the 23 at 06:00 until the 24 at 12:00 UTC


230455Z 2306/2412 16004KT 8000 SCT015
BECMG 2306/2309 22010KT 9999
PROB30
TEMPO 2306/2314 7000 SHRA RA
TEMPO 2314/2320 6000 -RADZ BKN012
PROB30
TEMPO 2316/2320 4000 RADZ BKN008
BECMG 2408/2411 19020G32KT
PROB30
TEMPO 2408/2412 8000 -RA BKN014



MET'MAP, your aeronautical weather chart ! - Copyright ORBIFLY December 2007 - Disclaimer

ORBIFLY MET'MAP TEAM :

Programming & Development : Alexandra Zaïnal
Concept & original design : Baudouin d'Aumeries
Assistance for programming : Marc-Olivier Méhu
Technical & hardware support : Manuel Goepfert

Contact : metmap@orbifly.com




SOURCES & CREDITS :

   NOAA